Time;durP1;ratioP1;P1;durP2;ratioP2;P2;SDS_P1;SDS_P2;PMS_P1;PMS_P2;Temp;Humidity;BMP_temperature;BMP_pressure;BME280_temperature;BME280_humidity;BME280_pressure;Samples;Min_cycle;Max_cycle;Signal;HPM_P1;HPM_P2
2023/06/24 00:00:00;;;;;;;5.90;5.25;;;;;;;27.93;59.34;101081.84;5091884;28;20043;-56
2023/06/24 00:02:36;;;;;;;8.23;5.30;;;;;;;27.97;59.14;101083.16;5099407;28;20052;-56
2023/06/24 00:05:06;;;;;;;7.65;4.95;;;;;;;27.99;59.25;101079.22;5092576;28;20047;-56
2023/06/24 00:07:44;;;;;;;7.93;5.25;;;;;;;28.02;59.27;101080.72;5095538;28;20044;-56
2023/06/24 00:10:14;;;;;;;7.68;5.03;;;;;;;28.02;58.83;101076.13;5096521;28;20048;-56
2023/06/24 00:12:44;;;;;;;8.18;5.00;;;;;;;28.06;59.10;101088.34;5096444;28;20048;-56
2023/06/24 00:15:12;;;;;;;7.63;5.47;;;;;;;28.07;58.86;101084.59;5096209;28;20391;-56
2023/06/24 00:17:40;;;;;;;6.45;5.20;;;;;;;28.10;58.50;101088.81;5096594;28;20057;-56
2023/06/24 00:20:10;;;;;;;5.75;5.07;;;;;;;28.10;58.41;101092.38;5096160;28;20047;-56
2023/06/24 00:22:43;;;;;;;5.78;5.03;;;;;;;28.13;58.71;101093.91;5096472;28;20048;-56
2023/06/24 00:25:11;;;;;;;7.53;5.18;;;;;;;28.13;58.50;101080.28;5096042;28;20055;-56
2023/06/24 00:27:38;;;;;;;8.00;4.97;;;;;;;28.14;58.31;101079.25;5096086;28;20048;-56
2023/06/24 00:30:06;;;;;;;5.38;4.25;;;;;;;28.16;58.70;101079.09;5094855;28;20075;-56
2023/06/24 00:32:34;;;;;;;6.97;4.70;;;;;;;28.16;58.70;101076.38;5096490;28;20055;-56
2023/06/24 00:35:04;;;;;;;6.28;5.22;;;;;;;28.17;58.31;101081.63;5095823;28;20040;-56
2023/06/24 00:37:31;;;;;;;6.57;4.68;;;;;;;28.17;58.48;101073.47;5096014;28;20047;-56
2023/06/24 00:39:58;;;;;;;7.93;5.70;;;;;;;28.18;58.51;101077.03;5094632;28;20056;-56
2023/06/24 00:42:26;;;;;;;6.05;4.95;;;;;;;28.20;58.61;101073.09;5094940;28;20059;-56
2023/06/24 00:44:54;;;;;;;5.78;4.93;;;;;;;28.20;58.49;101067.66;5095804;28;20063;-56
2023/06/24 00:47:23;;;;;;;6.50;4.88;;;;;;;28.19;58.26;101062.38;5095628;28;20500;-56
2023/06/24 00:49:51;;;;;;;8.82;5.05;;;;;;;28.20;58.12;101064.09;5095153;28;20051;-56
2023/06/24 00:52:18;;;;;;;5.53;4.38;;;;;;;28.20;58.20;101055.91;5095684;28;20094;-56
2023/06/24 00:54:46;;;;;;;6.13;4.93;;;;;;;28.23;58.58;101060.97;5095144;28;20080;-56
2023/06/24 00:57:13;;;;;;;7.68;4.40;;;;;;;28.22;58.17;101062.84;5095395;28;20044;-56
2023/06/24 00:59:44;;;;;;;7.88;5.30;;;;;;;28.22;58.53;101067.44;5094367;28;20051;-56
2023/06/24 01:02:11;;;;;;;7.78;5.93;;;;;;;28.23;58.38;101060.97;5095513;28;20051;-56
2023/06/24 01:04:39;;;;;;;6.10;5.07;;;;;;;28.23;57.97;101064.53;5095013;28;20044;-56
2023/06/24 01:07:07;;;;;;;5.80;5.05;;;;;;;28.23;58.31;101061.81;5095480;28;20048;-55
2023/06/24 01:09:36;;;;;;;6.55;4.90;;;;;;;28.24;58.46;101057.25;5093789;28;20055;-56
2023/06/24 01:12:04;;;;;;;8.00;5.82;;;;;;;28.25;58.07;101053.47;5095406;28;20044;-56
2023/06/24 01:14:33;;;;;;;6.18;4.53;;;;;;;28.24;58.17;101055.34;5077917;28;20507;-56
2023/06/24 01:17:19;;;;;;;8.85;5.50;;;;;;;28.24;57.62;101058.09;5094348;28;20051;-56
2023/06/24 01:20:10;;;;;;;7.82;5.15;;;;;;;28.25;57.98;101053.47;5095124;28;20403;-56
2023/06/24 01:22:41;;;;;;;7.47;5.50;;;;;;;28.25;57.91;101056.19;5093599;28;20063;-56
2023/06/24 01:25:21;;;;;;;5.35;4.53;;;;;;;28.26;57.83;101060.59;5095416;28;20036;-56
2023/06/24 01:28:12;;;;;;;6.60;4.88;;;;;;;28.25;57.49;101067.94;5093552;28;20511;-55
2023/06/24 01:31:10;;;;;;;6.38;5.13;;;;;;;28.24;57.32;101066.25;5093689;28;20062;-55
2023/06/24 01:34:01;;;;;;;6.47;5.13;;;;;;;28.26;57.53;101071.50;5094836;28;20052;-56
2023/06/24 01:36:31;;;;;;;9.23;5.57;;;;;;;28.25;57.38;101070.66;5095286;28;20059;-56
2023/06/24 01:39:03;;;;;;;6.38;5.03;;;;;;;28.24;57.42;101070.84;5094220;28;20048;-56
2023/06/24 01:41:36;;;;;;;5.97;4.85;;;;;;;28.24;56.81;101065.41;5094372;28;20048;-56
2023/06/24 01:44:04;;;;;;;5.75;4.97;;;;;;;28.25;57.05;101075.25;5094575;28;20059;-56
2023/06/24 01:46:32;;;;;;;5.82;4.57;;;;;;;28.25;56.88;101076.09;5094397;28;20047;-56
2023/06/24 01:49:03;;;;;;;4.88;4.38;;;;;;;28.25;56.84;101089.72;5093375;28;20063;-56
2023/06/24 01:51:34;;;;;;;6.82;5.35;;;;;;;28.25;56.98;101086.16;5094868;28;20047;-56
2023/06/24 01:54:05;;;;;;;7.47;5.80;;;;;;;28.26;56.88;101091.41;5094574;28;20048;-56
2023/06/24 01:56:35;;;;;;;6.82;4.72;;;;;;;28.25;56.97;101087.00;5093447;28;20071;-56
2023/06/24 01:59:05;;;;;;;6.03;4.95;;;;;;;28.26;56.88;101091.41;5092803;28;20071;-56
2023/06/24 02:01:35;;;;;;;6.95;4.65;;;;;;;28.26;56.77;101096.00;5092971;28;20407;-55
2023/06/24 02:04:04;;;;;;;7.30;5.10;;;;;;;28.27;56.73;101094.97;5093305;28;20403;-56
2023/06/24 02:06:32;;;;;;;6.28;4.93;;;;;;;28.26;57.13;101101.44;5094441;28;20040;-56
2023/06/24 02:09:01;;;;;;;5.68;4.57;;;;;;;28.27;56.80;101098.53;5076306;28;20067;-55
2023/06/24 02:11:33;;;;;;;5.68;4.35;;;;;;;28.27;57.01;101109.41;5092758;28;20062;-56
2023/06/24 02:14:03;;;;;;;7.43;4.90;;;;;;;28.26;56.87;101115.91;5093155;28;20054;-56
2023/06/24 02:16:33;;;;;;;5.25;4.72;;;;;;;28.26;57.03;101104.16;5093149;28;20051;-56
2023/06/24 02:19:02;;;;;;;5.82;4.70;;;;;;;28.27;57.21;101106.69;5093812;28;20044;-56
2023/06/24 02:21:30;;;;;;;6.60;5.10;;;;;;;28.27;56.66;101109.41;5092502;28;20063;-56
2023/06/24 02:23:58;;;;;;;8.52;5.50;;;;;;;28.26;56.92;101105.00;5094254;28;20044;-56
2023/06/24 02:26:26;;;;;;;7.13;4.57;;;;;;;28.27;57.00;101114.00;5092621;28;20048;-56
2023/06/24 02:28:54;;;;;;;5.63;4.35;;;;;;;28.26;57.01;101104.16;5093168;28;20051;-56
2023/06/24 02:31:22;;;;;;;6.25;4.88;;;;;;;28.26;56.57;101106.88;5094082;28;20403;-55
2023/06/24 02:33:49;;;;;;;6.38;4.45;;;;;;;28.27;57.07;101116.75;5092608;28;20056;-55
2023/06/24 02:36:19;;;;;;;7.65;4.72;;;;;;;28.27;56.95;101111.28;5093648;28;20041;-56
2023/06/24 02:38:46;;;;;;;6.90;4.70;;;;;;;28.26;56.82;101124.06;5093512;28;20044;-55
2023/06/24 02:41:14;;;;;;;5.93;4.45;;;;;;;28.26;56.95;101115.91;5092553;28;20154;-56
2023/06/24 02:43:42;;;;;;;6.32;5.03;;;;;;;28.26;56.71;101121.34;5075938;28;20059;-55
2023/06/24 02:46:10;;;;;;;5.70;4.25;;;;;;;28.26;56.74;101124.06;5093532;28;20054;-55
2023/06/24 02:48:40;;;;;;;5.88;5.10;;;;;;;28.27;56.82;101127.63;5092820;28;20391;-56
2023/06/24 02:51:09;;;;;;;5.80;4.97;;;;;;;28.27;56.89;101122.19;5092438;28;20059;-54
2023/06/24 02:53:38;;;;;;;5.25;4.65;;;;;;;28.27;56.77;101125.75;5092113;28;20411;-55
2023/06/24 02:56:08;;;;;;;6.75;4.82;;;;;;;28.26;56.53;101134.97;5092850;28;20498;-58
2023/06/24 02:58:39;;;;;;;8.40;4.95;;;;;;;28.25;56.38;101136.00;5092509;28;20048;-58
2023/06/24 03:01:18;;;;;;;8.95;5.97;;;;;;;28.21;55.24;101151.00;5090432;28;20055;-58
2023/06/24 03:03:49;;;;;;;8.55;5.28;;;;;;;28.15;55.15;101146.28;5092260;28;20055;-59
2023/06/24 03:06:18;;;;;;;7.72;5.75;;;;;;;28.07;55.08;101147.19;5091922;28;20048;-58
2023/06/24 03:08:47;;;;;;;8.07;5.68;;;;;;;28.02;54.83;101141.44;5091405;28;20048;-58
2023/06/24 03:11:16;;;;;;;5.95;5.15;;;;;;;28.00;54.27;101154.41;5091930;28;20047;-58
2023/06/24 03:13:44;;;;;;;8.10;6.07;;;;;;;27.98;54.18;101156.44;5093299;28;20044;-58
2023/06/24 03:16:15;;;;;;;8.73;6.20;;;;;;;27.95;54.05;101162.25;5108198;28;20470;-58
2023/06/24 03:18:56;;;;;;;7.65;6.05;;;;;;;27.85;54.31;101156.22;5092009;28;20059;-58
2023/06/24 03:21:28;;;;;;;8.55;5.88;;;;;;;27.77;54.55;101164.44;5093688;28;20047;-58
2023/06/24 03:24:04;;;;;;;7.38;6.57;;;;;;;27.69;54.46;101162.56;5091733;28;20052;-58
2023/06/24 03:26:37;;;;;;;7.00;5.82;;;;;;;27.68;54.87;101165.47;5075696;28;20387;-58
2023/06/24 03:29:10;;;;;;;8.20;6.60;;;;;;;27.68;54.51;101176.34;5092085;28;20052;-58
2023/06/24 03:31:44;;;;;;;8.90;6.93;;;;;;;27.68;54.89;101176.34;5091264;28;20180;-58
2023/06/24 03:34:16;;;;;;;8.00;5.90;;;;;;;27.67;54.76;101169.19;5091697;28;20044;-58
2023/06/24 03:36:44;;;;;;;8.18;5.25;;;;;;;27.67;55.00;101191.84;5091431;28;20048;-58
2023/06/24 03:39:14;;;;;;;7.82;5.57;;;;;;;27.68;54.84;101184.53;5091657;28;20060;-58
2023/06/24 03:41:42;;;;;;;8.57;5.43;;;;;;;27.69;54.93;101186.22;5093137;28;20052;-58
2023/06/24 03:44:11;;;;;;;8.38;6.57;;;;;;;27.70;55.02;101180.56;5096395;28;20063;-58
2023/06/24 03:46:39;;;;;;;8.60;6.00;;;;;;;27.70;55.02;101185.16;5096023;28;20389;-58
2023/06/24 03:49:08;;;;;;;7.85;5.93;;;;;;;27.68;55.03;101187.25;5095886;28;20052;-58
2023/06/24 03:51:36;;;;;;;7.63;5.57;;;;;;;27.68;54.61;101193.53;5095610;28;20039;-58
2023/06/24 03:54:03;;;;;;;8.43;5.72;;;;;;;27.67;54.76;101202.72;5096866;28;20048;-58
2023/06/24 03:56:31;;;;;;;6.60;5.68;;;;;;;27.69;54.91;101205.25;5096086;28;20052;-58
2023/06/24 03:58:58;;;;;;;6.53;5.20;;;;;;;27.69;54.57;101205.25;5095554;28;20055;-58
2023/06/24 04:01:26;;;;;;;6.45;5.45;;;;;;;27.69;55.07;101207.97;5094567;28;20043;-58
2023/06/24 04:03:53;;;;;;;6.93;5.30;;;;;;;27.71;54.88;101205.91;5095629;28;20040;-58
2023/06/24 04:06:20;;;;;;;8.52;5.57;;;;;;;27.71;54.63;101217.66;5096581;28;20376;-58
2023/06/24 04:08:48;;;;;;;6.60;5.82;;;;;;;27.71;54.61;101220.38;5095434;28;20060;-58
2023/06/24 04:11:16;;;;;;;8.07;5.82;;;;;;;27.73;54.91;101228.34;5095757;28;20067;-58
2023/06/24 04:13:48;;;;;;;6.75;5.32;;;;;;;27.72;54.73;101221.22;5096451;28;20051;-58
2023/06/24 04:16:16;;;;;;;6.78;4.78;;;;;;;27.72;54.87;101222.06;5095308;28;20052;-57
2023/06/24 04:18:43;;;;;;;9.75;6.10;;;;;;;27.73;54.79;101225.63;5095166;28;20056;-58
2023/06/24 04:21:11;;;;;;;7.85;5.80;;;;;;;27.73;54.47;101233.78;5095744;28;20060;-58
2023/06/24 04:23:38;;;;;;;7.13;5.07;;;;;;;27.71;54.74;101238.53;5096352;28;20403;-58
2023/06/24 04:26:06;;;;;;;6.40;5.20;;;;;;;27.70;54.30;101237.69;5096319;28;20044;-58
2023/06/24 04:28:33;;;;;;;9.20;5.60;;;;;;;27.70;54.21;101234.13;5095237;28;20514;-58
2023/06/24 04:31:00;;;;;;;7.60;5.20;;;;;;;27.72;54.24;101242.97;5094601;28;20052;-57
2023/06/24 04:33:28;;;;;;;6.85;4.65;;;;;;;27.71;54.43;101236.69;5094499;28;20048;-58
2023/06/24 04:35:56;;;;;;;6.65;4.90;;;;;;;27.71;54.50;101236.69;5095579;28;20040;-58
2023/06/24 04:38:24;;;;;;;8.45;5.20;;;;;;;27.73;54.27;101239.22;5094627;28;20071;-58
2023/06/24 04:40:53;;;;;;;6.70;5.15;;;;;;;27.71;54.44;101242.13;5094761;28;20059;-57
2023/06/24 04:43:20;;;;;;;7.38;5.20;;;;;;;27.71;54.42;101242.13;5075784;28;20063;-58
2023/06/24 04:45:48;;;;;;;5.78;4.68;;;;;;;27.69;54.62;101240.59;5075308;28;20045;-58
2023/06/24 04:48:16;;;;;;;5.68;4.68;;;;;;;27.67;54.13;101237.19;5075966;28;20051;-58
2023/06/24 04:50:44;;;;;;;5.40;4.60;;;;;;;27.65;53.98;101236.53;5075408;28;20400;-58
2023/06/24 04:53:12;;;;;;;6.75;5.20;;;;;;;27.65;54.12;101242.00;5074936;28;20052;-58
2023/06/24 04:55:40;;;;;;;7.20;5.22;;;;;;;27.66;54.51;101246.41;5075642;28;20048;-58
2023/06/24 04:58:07;;;;;;;9.85;5.35;;;;;;;27.65;54.44;101242.00;5075182;28;20040;-58
2023/06/24 05:00:34;;;;;;;5.60;4.72;;;;;;;27.64;53.89;101240.31;5074983;28;20044;-58
2023/06/24 05:03:02;;;;;;;5.75;5.03;;;;;;;27.65;54.08;101236.53;5087348;28;20051;-58
2023/06/24 05:05:29;;;;;;;6.47;4.30;;;;;;;27.67;53.68;101237.19;5094583;28;20089;-58
2023/06/24 05:08:00;;;;;;;4.47;3.70;;;;;;;27.67;53.11;101239.91;5095000;28;20044;-58
2023/06/24 05:10:27;;;;;;;6.03;4.35;;;;;;;27.66;52.97;101241.81;5094979;28;20040;-58
2023/06/24 05:12:55;;;;;;;6.07;4.55;;;;;;;27.66;53.23;101240.97;5094488;28;20052;-58
2023/06/24 05:15:22;;;;;;;7.07;4.82;;;;;;;27.65;52.83;101240.09;5095079;28;20051;-58
2023/06/24 05:17:50;;;;;;;7.07;4.80;;;;;;;27.65;52.87;101244.72;5094518;28;20098;-58
2023/06/24 05:20:20;;;;;;;7.57;4.22;;;;;;;27.65;53.04;101244.72;5095336;28;20055;-58
2023/06/24 05:22:47;;;;;;;5.78;4.13;;;;;;;27.62;52.92;101243.19;5095619;28;20484;-58
2023/06/24 05:25:14;;;;;;;6.13;4.15;;;;;;;27.63;52.99;101238.59;5094956;28;20059;-58
2023/06/24 05:27:44;;;;;;;6.28;4.55;;;;;;;27.62;53.44;101248.63;5094760;28;20040;-58
2023/06/24 05:30:12;;;;;;;5.70;4.57;;;;;;;27.61;53.28;101252.38;5094636;28;20498;-58
2023/06/24 05:32:40;;;;;;;8.18;4.90;;;;;;;27.60;53.04;101256.13;5095095;28;20504;-57
2023/06/24 05:35:08;;;;;;;5.70;4.25;;;;;;;27.60;53.20;101259.69;5094833;28;20530;-58
2023/06/24 05:37:35;;;;;;;7.05;5.05;;;;;;;27.56;52.97;101254.78;5094685;28;20051;-58
2023/06/24 05:40:05;;;;;;;5.68;4.65;;;;;;;27.47;53.24;101264.84;5095081;28;20044;-58
2023/06/24 05:42:33;;;;;;;5.90;4.57;;;;;;;27.40;53.21;101257.56;5094652;28;20044;-58
2023/06/24 05:45:01;;;;;;;7.10;4.72;;;;;;;27.37;53.48;101269.63;5094435;28;20044;-58
2023/06/24 05:47:28;;;;;;;5.55;4.30;;;;;;;27.36;53.51;101274.22;5094964;28;20044;-58
2023/06/24 05:49:56;;;;;;;5.35;3.92;;;;;;;27.37;53.53;101277.78;5094452;28;20044;-58
2023/06/24 05:52:23;;;;;;;7.13;4.47;;;;;;;27.38;53.64;101284.91;5094541;28;20048;-57
2023/06/24 05:54:50;;;;;;;5.85;4.43;;;;;;;27.40;53.95;101291.03;5094682;28;20530;-58
2023/06/24 05:57:18;;;;;;;6.05;4.25;;;;;;;27.42;53.64;101285.41;5093414;28;20051;-58
2023/06/24 05:59:45;;;;;;;6.30;4.70;;;;;;;27.43;53.89;101287.97;5094175;28;20040;-58
2023/06/24 06:02:12;;;;;;;7.47;4.72;;;;;;;27.41;53.84;101292.72;5094433;28;20055;-58
2023/06/24 06:04:40;;;;;;;5.97;4.85;;;;;;;27.40;53.93;101298.34;5091003;28;20042;-58
2023/06/24 06:07:07;;;;;;;5.97;4.90;;;;;;;27.34;53.70;101306.16;5093975;28;20036;-58
2023/06/24 06:09:35;;;;;;;7.90;4.80;;;;;;;27.29;53.45;101308.56;5094130;28;20048;-58
2023/06/24 06:12:03;;;;;;;5.53;4.35;;;;;;;27.26;53.60;101310.75;5093720;28;20059;-58
2023/06/24 06:14:30;;;;;;;7.70;4.50;;;;;;;27.23;53.46;101313.84;5094129;28;20044;-58
2023/06/24 06:16:57;;;;;;;5.22;4.28;;;;;;;27.23;53.67;101322.00;5094103;28;20040;-58
2023/06/24 06:19:25;;;;;;;6.22;3.90;;;;;;;27.23;53.70;101320.13;5093889;28;20047;-58
2023/06/24 06:21:52;;;;;;;5.15;4.13;;;;;;;27.27;53.77;101320.63;5094150;28;20048;-58
2023/06/24 06:24:19;;;;;;;6.00;4.05;;;;;;;27.31;53.66;101320.13;5094291;28;20047;-58
2023/06/24 06:26:47;;;;;;;5.13;4.10;;;;;;;27.36;53.78;101325.03;5093805;28;20044;-58
2023/06/24 06:29:14;;;;;;;5.90;4.38;;;;;;;27.39;53.96;101326.53;5093757;28;20408;-58
2023/06/24 06:31:41;;;;;;;6.97;4.32;;;;;;;27.42;53.80;101326.19;5094272;28;20518;-58
2023/06/24 06:34:09;;;;;;;4.78;4.00;;;;;;;27.45;54.08;101334.84;5093634;28;20048;-58
2023/06/24 06:36:36;;;;;;;5.10;3.85;;;;;;;27.47;54.31;101337.41;5093638;28;20063;-58
2023/06/24 06:39:04;;;;;;;5.90;3.97;;;;;;;27.50;54.39;101343.34;5093422;28;20407;-58
2023/06/24 06:41:31;;;;;;;5.28;3.67;;;;;;;27.52;53.98;101343.19;5094150;28;20094;-58
2023/06/24 06:43:59;;;;;;;5.55;3.83;;;;;;;27.53;54.18;101343.00;5093185;28;20048;-58
2023/06/24 06:46:27;;;;;;;6.20;4.15;;;;;;;27.54;54.18;101341.97;5093338;28;20052;-58
2023/06/24 06:48:55;;;;;;;7.38;3.90;;;;;;;27.54;54.15;101339.25;5093710;28;20392;-58
2023/06/24 06:51:24;;;;;;;5.03;4.00;;;;;;;27.55;54.12;101342.84;5093423;28;20044;-58
2023/06/24 06:53:51;;;;;;;6.45;4.68;;;;;;;27.56;54.14;101341.81;5093585;28;20404;-58
2023/06/24 06:56:25;;;;;;;5.75;3.88;;;;;;;27.58;53.60;101347.91;5093252;28;20048;-58
2023/06/24 06:58:53;;;;;;;5.72;4.15;;;;;;;27.56;53.11;101336.38;5093073;28;20059;-58
2023/06/24 07:01:20;;;;;;;5.90;4.20;;;;;;;27.54;52.95;101333.81;5093150;28;20055;-58
2023/06/24 07:03:49;;;;;;;4.72;3.67;;;;;;;27.53;53.09;101337.56;5081983;28;20036;-58
2023/06/24 07:06:19;;;;;;;6.40;4.45;;;;;;;27.52;53.19;101324.16;5085638;28;20048;-58
2023/06/24 07:08:47;;;;;;;6.95;4.40;;;;;;;27.53;53.08;101331.28;5072665;28;20040;-58
2023/06/24 07:11:14;;;;;;;5.47;4.28;;;;;;;27.50;52.96;101326.16;5072937;28;20393;-59
2023/06/24 07:13:41;;;;;;;5.47;3.80;;;;;;;27.48;53.27;101326.38;5072810;28;20044;-58
2023/06/24 07:16:09;;;;;;;4.72;3.63;;;;;;;27.47;52.47;101330.09;5072415;28;20512;-58
2023/06/24 07:18:36;;;;;;;7.03;4.32;;;;;;;27.46;52.12;101324.81;5078583;28;20048;-59
2023/06/24 07:21:04;;;;;;;9.30;4.15;;;;;;;27.45;51.56;101323.97;5092752;28;20044;-59
2023/06/24 07:23:31;;;;;;;7.47;3.97;;;;;;;27.46;51.59;101322.94;5092743;28;20476;-59
2023/06/24 07:25:58;;;;;;;5.75;4.53;;;;;;;27.47;51.19;101326.53;5089937;28;20048;-58
2023/06/24 07:28:30;;;;;;;4.72;4.18;;;;;;;27.45;50.97;101323.97;5091833;28;20048;-55
2023/06/24 07:30:57;;;;;;;5.95;4.57;;;;;;;27.44;50.15;101327.72;5092577;28;20435;-57
2023/06/24 07:33:25;;;;;;;4.97;3.60;;;;;;;27.45;50.38;101325.84;5093053;28;20048;-57
2023/06/24 07:35:52;;;;;;;5.18;3.83;;;;;;;27.46;50.20;101331.09;5092817;28;20048;-57
2023/06/24 07:38:19;;;;;;;6.60;3.90;;;;;;;27.47;49.40;101331.97;5092942;28;20044;-58
2023/06/24 07:40:47;;;;;;;4.60;3.55;;;;;;;27.45;49.32;101337.56;5092822;28;20046;-57
2023/06/24 07:43:15;;;;;;;4.32;3.42;;;;;;;27.45;48.90;101334.84;5087829;28;20048;-55
2023/06/24 07:45:43;;;;;;;6.93;3.55;;;;;;;27.45;48.90;101332.13;5092717;28;20040;-55
2023/06/24 07:48:10;;;;;;;5.10;4.00;;;;;;;27.44;49.11;101332.31;5092657;28;20044;-55
2023/06/24 07:50:38;;;;;;;5.38;3.80;;;;;;;27.45;48.92;101326.69;5093071;28;20091;-55
2023/06/24 07:53:06;;;;;;;5.70;3.45;;;;;;;27.44;48.95;101338.59;5092884;28;20055;-57
2023/06/24 07:55:33;;;;;;;5.28;3.63;;;;;;;27.43;49.07;101336.03;5092533;28;20044;-58
2023/06/24 07:58:02;;;;;;;6.05;3.60;;;;;;;27.43;48.38;101341.47;5092793;28;20044;-58
2023/06/24 08:00:30;;;;;;;4.72;3.35;;;;;;;27.44;48.68;101338.59;5092608;28;20048;-58
2023/06/24 08:02:57;;;;;;;5.97;3.75;;;;;;;27.46;48.46;101341.97;5092772;28;20051;-55
2023/06/24 08:05:26;;;;;;;4.80;3.72;;;;;;;27.48;47.97;101341.84;5092080;28;20559;-55
2023/06/24 08:07:53;;;;;;;4.78;3.50;;;;;;;27.49;47.44;101340.81;5091803;28;20040;-54
2023/06/24 08:10:21;;;;;;;4.53;3.70;;;;;;;27.47;47.30;101345.59;5092388;28;20484;-55
2023/06/24 08:12:48;;;;;;;5.15;3.63;;;;;;;27.47;47.09;101354.59;5093036;28;20044;-57
2023/06/24 08:15:15;;;;;;;6.13;4.15;;;;;;;27.48;47.47;101347.28;5092438;28;20044;-58
2023/06/24 08:17:43;;;;;;;4.70;4.18;;;;;;;27.49;47.50;101344.38;5092531;28;20376;-58
2023/06/24 08:20:11;;;;;;;4.68;3.63;;;;;;;27.53;48.00;101347.59;5092716;28;20075;-58
2023/06/24 08:22:38;;;;;;;5.63;4.07;;;;;;;27.54;48.09;101355.56;5092357;28;20392;-57
2023/06/24 08:25:06;;;;;;;4.75;3.70;;;;;;;27.56;48.93;101348.09;5092116;28;20052;-58
2023/06/24 08:27:33;;;;;;;4.95;3.70;;;;;;;27.58;48.93;101351.47;5092014;28;20048;-58
2023/06/24 08:30:01;;;;;;;5.22;4.10;;;;;;;27.58;49.48;101348.75;5096442;28;20052;-58
2023/06/24 08:32:28;;;;;;;4.35;3.20;;;;;;;27.59;49.36;101347.75;5095999;28;20051;-55
2023/06/24 08:34:55;;;;;;;5.75;4.05;;;;;;;27.64;49.20;101352.66;5095765;28;20063;-54
2023/06/24 08:37:23;;;;;;;5.50;4.22;;;;;;;27.64;48.78;101349.94;5096194;28;20044;-55
2023/06/24 08:39:50;;;;;;;5.20;3.88;;;;;;;27.64;48.24;101343.66;5095596;28;20048;-55
2023/06/24 08:42:18;;;;;;;5.40;3.83;;;;;;;27.61;47.98;101351.13;5095662;28;20055;-54
2023/06/24 08:44:45;;;;;;;4.97;3.58;;;;;;;27.61;47.98;101345.69;5093460;28;20048;-54
2023/06/24 08:47:14;;;;;;;5.32;4.07;;;;;;;27.60;47.46;101349.44;5095585;28;20047;-56
2023/06/24 08:49:49;;;;;;;6.40;3.92;;;;;;;27.61;47.20;101359.28;5075110;28;20052;-56
2023/06/24 08:52:16;;;;;;;5.60;3.88;;;;;;;27.59;46.33;101345.03;5090850;28;20424;-55
2023/06/24 08:54:51;;;;;;;5.93;4.35;;;;;;;27.61;46.65;101345.69;5095472;28;20400;-56
2023/06/24 08:57:18;;;;;;;5.93;3.20;;;;;;;27.66;47.20;101344.31;5082770;28;20393;-49
2023/06/24 08:59:46;;;;;;;5.13;3.58;;;;;;;27.71;47.60;101344.63;5075322;28;20477;-49
2023/06/24 09:02:13;;;;;;;4.95;3.50;;;;;;;27.74;47.35;101338.88;5083924;28;20381;-59
2023/06/24 09:04:41;;;;;;;4.80;3.40;;;;;;;27.78;47.87;101340.22;5095463;28;20047;-59
2023/06/24 09:07:09;;;;;;;5.95;3.92;;;;;;;27.81;47.53;101339.88;5093772;28;20044;-59
2023/06/24 09:09:47;;;;;;;5.43;4.03;;;;;;;27.82;47.18;101341.56;5094889;28;20059;-59
2023/06/24 09:12:15;;;;;;;4.53;3.33;;;;;;;27.81;47.18;101329.00;5095645;28;20133;-58
2023/06/24 09:14:49;;;;;;;5.10;3.45;;;;;;;27.83;46.94;101335.97;5095090;28;20067;-58
2023/06/24 09:17:17;;;;;;;5.40;3.70;;;;;;;27.80;46.33;101333.59;5094967;28;20052;-58
2023/06/24 09:19:44;;;;;;;7.00;3.38;;;;;;;27.81;46.18;101327.13;5094329;28;20048;-58
2023/06/24 09:22:16;;;;;;;5.28;3.80;;;;;;;27.83;46.17;101324.22;5094597;28;20044;-51
2023/06/24 09:24:48;;;;;;;5.63;3.30;;;;;;;27.85;46.27;101323.03;5094775;28;20048;-51
2023/06/24 09:27:19;;;;;;;5.38;3.05;;;;;;;27.87;46.25;101317.41;5095267;28;20791;-55
2023/06/24 09:29:47;;;;;;;5.03;2.95;;;;;;;27.87;46.51;101317.41;5094767;28;20412;-55
2023/06/24 09:32:16;;;;;;;6.05;3.58;;;;;;;27.87;46.31;101309.22;5094887;28;20052;-59
2023/06/24 09:34:44;;;;;;;5.20;3.70;;;;;;;27.87;46.77;101311.97;5094663;28;20055;-58
2023/06/24 09:37:21;;;;;;;5.75;3.70;;;;;;;27.88;46.67;101310.13;5095109;28;20048;-59
2023/06/24 09:39:48;;;;;;;5.55;3.80;;;;;;;27.87;47.23;101303.78;5094759;28;20400;-59
2023/06/24 09:42:21;;;;;;;4.45;3.35;;;;;;;27.85;46.40;101303.13;5095114;28;20058;-58
2023/06/24 09:44:55;;;;;;;6.55;3.35;;;;;;;27.83;46.16;101300.59;5093493;28;20056;-58
2023/06/24 09:47:28;;;;;;;4.65;3.50;;;;;;;27.84;46.96;101307.72;5094661;28;20391;-59
2023/06/24 09:49:55;;;;;;;5.90;3.70;;;;;;;27.85;47.26;101303.97;5094566;28;20044;-58
2023/06/24 09:52:26;;;;;;;5.57;3.85;;;;;;;27.84;47.19;101301.44;5095407;28;20044;-58
2023/06/24 09:54:55;;;;;;;4.88;3.45;;;;;;;27.85;48.50;101297.69;5094510;28;20055;-59
2023/06/24 09:57:27;;;;;;;5.32;3.60;;;;;;;27.85;48.96;101300.41;5094319;28;20048;-58
2023/06/24 09:59:54;;;;;;;3.78;3.00;;;;;;;27.85;49.19;101303.13;5094434;28;20051;-59
2023/06/24 10:02:23;;;;;;;6.95;3.72;;;;;;;27.87;48.70;101309.22;5094892;28;20044;-54
2023/06/24 10:04:52;;;;;;;4.70;3.05;;;;;;;27.85;47.29;101298.53;5094336;28;20048;-54
2023/06/24 10:07:20;;;;;;;5.82;3.55;;;;;;;27.87;46.77;101300.22;5091819;28;20052;-56
2023/06/24 10:09:48;;;;;;;4.97;3.65;;;;;;;27.87;47.52;101292.06;5093404;28;20052;-57
2023/06/24 10:12:16;;;;;;;4.22;3.38;;;;;;;27.88;47.98;101297.34;5093643;28;20059;-60
2023/06/24 10:14:43;;;;;;;5.43;3.45;;;;;;;27.90;47.31;101291.72;5094308;28;20048;-60
2023/06/24 10:17:11;;;;;;;6.30;3.38;;;;;;;27.91;47.37;101290.69;5094304;28;20412;-60
2023/06/24 10:19:41;;;;;;;4.80;2.90;;;;;;;27.90;46.83;101287.13;5093330;28;20051;-60
2023/06/24 10:22:12;;;;;;;5.57;3.08;;;;;;;27.91;46.82;101286.09;5094537;28;20404;-57
2023/06/24 10:24:42;;;;;;;5.60;3.37;;;;;;;27.90;46.51;101281.69;5093548;28;20063;-53
2023/06/24 10:27:17;;;;;;;3.97;3.08;;;;;;;27.91;46.00;101285.25;5094182;28;20051;-58
2023/06/24 10:29:46;;;;;;;4.13;3.10;;;;;;;27.91;46.08;101285.25;5093865;28;20048;-57
2023/06/24 10:32:14;;;;;;;4.43;3.42;;;;;;;27.93;46.42;101278.59;5094368;28;20055;-62
2023/06/24 10:34:42;;;;;;;7.05;3.13;;;;;;;27.95;46.92;101281.97;5094081;28;20051;-61
2023/06/24 10:37:31;;;;;;;5.57;3.22;;;;;;;27.96;46.32;101282.84;5094071;28;20044;-60
2023/06/24 10:40:00;;;;;;;5.55;3.35;;;;;;;27.96;46.03;101285.59;5094141;28;20044;-59
2023/06/24 10:42:28;;;;;;;4.78;3.30;;;;;;;27.96;45.92;101283.69;5094263;28;20055;-60
2023/06/24 10:45:00;;;;;;;5.07;3.33;;;;;;;27.98;46.02;101281.63;5081020;28;20048;-60
2023/06/24 10:47:29;;;;;;;5.28;3.20;;;;;;;27.97;45.81;101279.09;5072465;28;20045;-59
2023/06/24 10:49:57;;;;;;;4.15;2.72;;;;;;;27.98;45.06;101278.91;5088867;28;20472;-60
2023/06/24 10:52:25;;;;;;;4.13;2.95;;;;;;;27.99;45.68;101269.72;5093967;28;20043;-60
2023/06/24 10:54:53;;;;;;;4.88;3.30;;;;;;;28.00;46.09;101271.44;5093843;28;20040;-61
2023/06/24 10:57:23;;;;;;;4.20;2.92;;;;;;;28.03;45.32;101272.94;5093775;28;20048;-61
2023/06/24 10:59:55;;;;;;;4.18;2.90;;;;;;;28.05;45.29;101273.63;5093741;28;20632;-58
2023/06/24 11:02:24;;;;;;;3.97;3.40;;;;;;;28.04;44.78;101270.06;5093385;28;20051;-55
2023/06/24 11:04:55;;;;;;;6.40;3.20;;;;;;;28.06;44.31;101264.41;5093591;28;20411;-57
2023/06/24 11:07:25;;;;;;;4.43;2.92;;;;;;;28.09;44.39;101267.63;5093538;28;20055;-57
2023/06/24 11:09:58;;;;;;;4.53;2.88;;;;;;;28.18;42.15;101265.69;5092010;28;20031;-52
2023/06/24 11:12:27;;;;;;;4.70;3.08;;;;;;;28.19;42.80;101264.66;5093580;28;20059;-59
2023/06/24 11:14:59;;;;;;;5.20;3.55;;;;;;;28.19;43.07;101248.31;5093443;28;20044;-58
2023/06/24 11:17:27;;;;;;;3.90;2.92;;;;;;;28.19;43.84;101239.31;5093600;28;20044;-59
2023/06/24 11:19:56;;;;;;;4.05;3.05;;;;;;;28.18;43.85;101249.38;5092887;28;20488;-58
2023/06/24 11:22:24;;;;;;;6.38;3.45;;;;;;;28.17;44.29;101244.13;5093637;28;20055;-59
2023/06/24 11:24:52;;;;;;;4.10;2.80;;;;;;;28.16;44.60;101239.69;5092360;28;20044;-58
2023/06/24 11:27:29;;;;;;;4.03;2.72;;;;;;;28.17;44.44;101233.22;5093361;28;20048;-58
2023/06/24 11:30:01;;;;;;;3.45;2.65;;;;;;;28.16;43.35;101228.81;5093000;28;20036;-58
2023/06/24 11:32:38;;;;;;;4.40;2.90;;;;;;;28.17;43.48;101223.19;5093228;28;20052;-57